Hav Tind — OZ2071 — position and weather

sailwx.info

Track history (hours):
 
Tides and Currents Weather Stations Pressure Air Temp Water Temp Dewpoint Dewpoint Depression Visibility Wind Speed Wind Dir Waves Ship Positions

Hav Tind

Last reported at 2014-Oct-01 17:33 UTC. Time now 2014-Oct-01 18:31 UTC.
Position N 62°14' W 006°48'.

Length 60 m; draft 4 m.

Type: Cargo ship. MMSI: 231565000.

Date/timePositionNaut miles runAvg speedWind from/ knotsBaromVisibWave heightAir tempDewpointWater temp
2014-Oct-01 17:33N 62°14' W 006°48'0 0.0
2014-Oct-01 16:33N 62°14' W 006°48'0 0.2
2014-Oct-01 15:33N 62°14' W 006°48'7 6.9
2014-Oct-01 14:33N 62°11' W 006°35'4 1.9
2014-Oct-01 12:33N 62°11' W 006°26'0 0.0
2014-Oct-01 06:17N 62°11' W 006°26'5 6.6
2014-Oct-01 05:33N 62°11' W 006°36'6 5.9
2014-Oct-01 04:31N 62°14' W 006°48'0 0.0
2014-Oct-01 03:31N 62°14' W 006°48'0 0.0
2014-Oct-01 02:31N 62°14' W 006°48'0 0.0
2014-Oct-01 01:31N 62°14' W 006°48'0 0.0
2014-Oct-01 00:31N 62°14' W 006°48'0 0.0
2014-Sep-30 23:31N 62°14' W 006°48'0 0.0
2014-Sep-30 22:31N 62°14' W 006°48'0 0.0
2014-Sep-30 21:31N 62°14' W 006°48'0 0.0
2014-Sep-30 20:31N 62°14' W 006°48'0 0.0
2014-Sep-30 19:31N 62°14' W 006°48'0 0.0
2014-Sep-30 18:31N 62°14' W 006°48'0 0.0
2014-Sep-30 17:31N 62°14' W 006°48'0 0.0
2014-Sep-30 16:31N 62°14' W 006°48'0 0.0
2014-Sep-30 15:25N 62°14' W 006°48'0 0.0
2014-Sep-30 14:28N 62°14' W 006°48'0 0.0
2014-Sep-30 13:31N 62°14' W 006°48'0 0.0
2014-Sep-30 12:31N 62°14' W 006°48'1 0.8
2014-Sep-30 11:32N 62°13' W 006°48'0 0.5
2014-Sep-30 10:34N 62°14' W 006°48'4 0.9
2014-Sep-30 06:27N 62°17' W 006°49'3 3.5
2014-Sep-30 05:32N 62°14' W 006°48'0 0.0
2014-Sep-30 04:32N 62°14' W 006°48'0 0.0
2014-Sep-30 03:14N 62°14' W 006°48'0 0.0
2014-Sep-30 02:29N 62°14' W 006°48'0 0.0
2014-Sep-30 01:32N 62°14' W 006°48'0 0.0
2014-Sep-30 00:29N 62°14' W 006°48'0 0.0
2014-Sep-29 23:29N 62°14' W 006°48'0 0.0
2014-Sep-29 22:26N 62°14' W 006°48'0 0.0
2014-Sep-29 21:17N 62°14' W 006°48'0 0.0
2014-Sep-29 20:32N 62°14' W 006°48'0 0.0
2014-Sep-29 19:32N 62°14' W 006°48'0 0.0
2014-Sep-29 18:32N 62°14' W 006°48'6 5.3
2014-Sep-29 17:20N 62°11' W 006°37'6 8.1
2014-Sep-29 16:33N 62°04' W 006°40'5 5.0
2014-Sep-29 15:32N 62°00' W 006°46'0 0.0
2014-Sep-29 14:29N 62°00' W 006°46'0 0.1
2014-Sep-29 13:29N 62°00' W 006°46'8 8.6
2014-Sep-29 12:33N 62°07' W 006°38'2 1.9
2014-Sep-29 11:31N 62°08' W 006°42'2 2.4
2014-Sep-29 10:32N 62°10' W 006°43'0 0.0
2014-Sep-29 09:32N 62°10' W 006°43'0 0.0
2014-Sep-29 08:29N 62°10' W 006°43'3 3.0
2014-Sep-29 07:31N 62°13' W 006°43'3 2.5
2014-Sep-29 06:29N 62°14' W 006°48'0 0.0
2014-Sep-29 05:32N 62°14' W 006°48'0 0.0
2014-Sep-29 04:32N 62°14' W 006°48'0 0.0
2014-Sep-29 03:26N 62°14' W 006°48'0 0.0
2014-Sep-29 02:17N 62°14' W 006°48'0 0.0
2014-Sep-29 01:29N 62°14' W 006°48'0 0.0
2014-Sep-29 00:32N 62°14' W 006°48'0 0.0
2014-Sep-28 23:32N 62°14' W 006°48'0 0.0
2014-Sep-28 22:32N 62°14' W 006°48'0 0.0
2014-Sep-28 21:32N 62°14' W 006°48'0 0.0
2014-Sep-28 20:32N 62°14' W 006°48'0 0.0
2014-Sep-28 19:26N 62°14' W 006°48'0 0.0
2014-Sep-28 18:32N 62°14' W 006°48'0 0.0
2014-Sep-28 17:32N 62°14' W 006°48'0 0.0
2014-Sep-28 16:32N 62°14' W 006°48'0 0.0
2014-Sep-28 15:32N 62°14' W 006°48'0 0.0
2014-Sep-28 14:32N 62°14' W 006°48'0 0.0
2014-Sep-28 13:32N 62°14' W 006°48'0 0.0
2014-Sep-28 12:32N 62°14' W 006°48'0 0.0
2014-Sep-28 11:32N 62°14' W 006°48'0 0.0
2014-Sep-28 10:32N 62°14' W 006°48'0 0.0
2014-Sep-28 09:32N 62°14' W 006°48'0 0.0
2014-Sep-28 08:32N 62°14' W 006°48'0 0.0
2014-Sep-28 07:32N 62°14' W 006°48'0 0.0
2014-Sep-28 06:29N 62°14' W 006°48'0 0.0
2014-Sep-28 05:32N 62°14' W 006°48'0 0.0
2014-Sep-28 04:32N 62°14' W 006°48'0 0.0
2014-Sep-28 03:32N 62°14' W 006°48'0 0.0
2014-Sep-28 02:32N 62°14' W 006°48'0 0.0
2014-Sep-28 01:32N 62°14' W 006°48'0 0.0
2014-Sep-28 00:32N 62°14' W 006°48'0 0.0
2014-Sep-27 23:32N 62°14' W 006°48'0 0.0
2014-Sep-27 22:32N 62°14' W 006°48'0 0.0
2014-Sep-27 21:32N 62°14' W 006°48'0 0.0
2014-Sep-27 20:32N 62°14' W 006°48'0 0.0
2014-Sep-27 19:26N 62°14' W 006°48'2 0.1
2014-Sep-26 12:30N 62°14' W 006°45'5 5.0
2014-Sep-26 11:33N 62°12' W 006°36'2 1.2
2014-Sep-26 09:33N 62°10' W 006°32'8 8.5
2014-Sep-26 08:33N 62°14' W 006°48'0 0.0
2014-Sep-26 07:33N 62°14' W 006°48'0 0.0
2014-Sep-26 06:34N 62°14' W 006°48'0 0.0
2014-Sep-26 05:34N 62°14' W 006°48'0 0.0
2014-Sep-26 04:33N 62°14' W 006°48'0 0.0
2014-Sep-26 03:34N 62°14' W 006°48'0 0.0
2014-Sep-26 02:34N 62°14' W 006°48'0 0.0
2014-Sep-26 01:34N 62°14' W 006°48'0 0.0
2014-Sep-26 00:34N 62°14' W 006°48'0 0.0
2014-Sep-25 23:33N 62°14' W 006°48'0 0.0
2014-Sep-25 22:34N 62°14' W 006°48'0 0.0
2014-Sep-25 21:31N 62°14' W 006°48'0 0.0
2014-Sep-25 20:34N 62°14' W 006°48'0 0.0
2014-Sep-25 19:34N 62°14' W 006°48'0 0.0
2014-Sep-25 18:33N 62°14' W 006°48'0 0.0
2014-Sep-25 17:34N 62°14' W 006°48'9 8.7
2014-Sep-25 16:33N 62°10' W 006°31'2 0.3
2014-Sep-25 08:27N 62°11' W 006°27'8 8.5
2014-Sep-25 07:33N 62°13' W 006°42'3 3.0
2014-Sep-25 06:33N 62°14' W 006°48'0 0.0
2014-Sep-25 05:33N 62°14' W 006°48'0 0.0
2014-Sep-25 04:33N 62°14' W 006°48'0 0.0
2014-Sep-25 03:33N 62°14' W 006°48'0 0.0
2014-Sep-25 02:33N 62°14' W 006°48'0 0.0
2014-Sep-25 01:33N 62°14' W 006°48'0 0.0
2014-Sep-25 00:33N 62°14' W 006°48'0 0.0
2014-Sep-24 23:33N 62°14' W 006°48'0 0.0
2014-Sep-24 22:33N 62°14' W 006°48'0 0.0
2014-Sep-24 21:33N 62°14' W 006°48'0 0.0
2014-Sep-24 20:33N 62°14' W 006°48'0 0.0
2014-Sep-24 19:33N 62°14' W 006°48'0 0.0
2014-Sep-24 18:33N 62°14' W 006°48'0 0.0
2014-Sep-24 17:33N 62°14' W 006°48'0 0.0
2014-Sep-24 16:33N 62°14' W 006°48'0 0.0
2014-Sep-24 15:33N 62°14' W 006°48'0 0.0
2014-Sep-24 14:30N 62°14' W 006°48'6 6.4
2014-Sep-24 13:34N 62°11' W 006°37'8 7.8
2014-Sep-24 12:33N 62°04' W 006°41'4 3.7
2014-Sep-24 11:32N 62°03' W 006°49'4 4.4
2014-Sep-24 10:32N 61°59' W 006°45'1 0.7
2014-Sep-24 09:33N 61°60' W 006°44'9 9.3
2014-Sep-24 08:33N 62°08' W 006°35'9 8.8
2014-Sep-24 07:33N 62°14' W 006°48'0 0.2
2014-Sep-24 06:32N 62°14' W 006°48'0 0.0
2014-Sep-24 05:32N 62°14' W 006°48'0 0.0
2014-Sep-24 04:32N 62°14' W 006°48'0 0.0
2014-Sep-24 03:29N 62°14' W 006°48'0 0.0
2014-Sep-24 02:32N 62°14' W 006°48'0 0.0
2014-Sep-24 01:29N 62°14' W 006°48'0 0.0
2014-Sep-24 00:32N 62°14' W 006°48'0 0.0
2014-Sep-23 23:32N 62°14' W 006°48'0 0.0
2014-Sep-23 22:32N 62°14' W 006°48'0 0.0
2014-Sep-23 21:32N 62°14' W 006°48'0 0.0
2014-Sep-23 20:32N 62°14' W 006°48'0 0.0
2014-Sep-23 19:32N 62°14' W 006°48'0 0.0
2014-Sep-23 18:32N 62°14' W 006°48'0 0.0
2014-Sep-23 17:32N 62°14' W 006°48'0 0.0
2014-Sep-23 16:32N 62°14' W 006°48'0 0.0
2014-Sep-23 15:32N 62°14' W 006°48'2 1.8
2014-Sep-23 14:33N 62°14' W 006°44'9 2.9
2014-Sep-23 11:33N 62°11' W 006°27'0 0.1
2014-Sep-23 09:26N 62°11' W 006°27'9 9.9
2014-Sep-23 08:33N 62°14' W 006°44'2 1.9
2014-Sep-23 07:33N 62°14' W 006°48'0 0.0
2014-Sep-23 06:30N 62°14' W 006°48'0 0.0
2014-Sep-23 05:33N 62°14' W 006°48'0 0.0
2014-Sep-23 04:30N 62°14' W 006°48'0 0.0
2014-Sep-23 03:33N 62°14' W 006°48'0 0.0
2014-Sep-23 02:33N 62°14' W 006°48'0 0.0
2014-Sep-23 01:30N 62°14' W 006°48'0 0.0
2014-Sep-23 00:33N 62°14' W 006°48'0 0.0
2014-Sep-22 23:33N 62°14' W 006°48'0 0.0
2014-Sep-22 22:33N 62°14' W 006°48'0 0.0
2014-Sep-22 21:33N 62°14' W 006°48'0 0.0
2014-Sep-22 20:33N 62°14' W 006°48'0 0.0
2014-Sep-22 19:33N 62°14' W 006°48'3 2.8
2014-Sep-22 18:33N 62°13' W 006°43'8 8.1
2014-Sep-22 17:33N 62°06' W 006°37'1010.1
2014-Sep-22 16:34N 61°56' W 006°44'9 9.1
2014-Sep-22 15:34N 62°00' W 007°01'3 1.7
2014-Sep-22 13:27N 62°02' W 007°08'9 9.6
2014-Sep-22 12:33N 61°58' W 006°52'7 6.8
2014-Sep-22 11:33N 62°03' W 006°42'6 5.4
2014-Sep-22 10:31N 62°08' W 006°41'0 0.1
2014-Sep-22 09:33N 62°08' W 006°42'4 4.3
2014-Sep-22 08:33N 62°12' W 006°40'4 4.1
2014-Sep-22 07:33N 62°14' W 006°48'0 0.0
2014-Sep-22 06:33N 62°14' W 006°48'0 0.0
2014-Sep-22 05:33N 62°14' W 006°48'0 0.0
2014-Sep-22 04:30N 62°14' W 006°48'0 0.0
2014-Sep-22 03:33N 62°14' W 006°48'0 0.0
2014-Sep-22 02:33N 62°14' W 006°48'0 0.0
2014-Sep-22 01:33N 62°14' W 006°48'0 0.0
2014-Sep-22 00:33N 62°14' W 006°48'0 0.0
2014-Sep-21 23:33N 62°14' W 006°48'0 0.0
2014-Sep-21 22:33N 62°14' W 006°48'0 0.0
2014-Sep-21 21:33N 62°14' W 006°48'0 0.0
2014-Sep-21 20:33N 62°14' W 006°48'0 0.0
2014-Sep-21 19:33N 62°14' W 006°48'0 0.0
2014-Sep-21 18:33N 62°14' W 006°48'0 0.0
2014-Sep-21 17:33N 62°14' W 006°48'  
Track history (hours):
 
Tides and Currents Weather Stations Pressure Air Temp Water Temp Dewpoint Dewpoint Depression Visibility Wind Speed Wind Dir Waves Ship Positions

Hav Tind

Last reported at 2014-Oct-01 17:33 UTC. Time now 2014-Oct-01 18:31 UTC.
Position N 62°14' W 006°48'.

Length 60 m; draft 4 m.

Type: Cargo ship. MMSI: 231565000.

Date/timePositionNaut miles runAvg speedWind from/ knotsBaromVisibWave heightAir tempDewpointWater temp
2014-Oct-01 17:33N 62°14' W 006°48'0 0.0
2014-Oct-01 16:33N 62°14' W 006°48'0 0.2
2014-Oct-01 15:33N 62°14' W 006°48'7 6.9
2014-Oct-01 14:33N 62°11' W 006°35'4 1.9
2014-Oct-01 12:33N 62°11' W 006°26'0 0.0
2014-Oct-01 06:17N 62°11' W 006°26'5 6.6
2014-Oct-01 05:33N 62°11' W 006°36'6 5.9
2014-Oct-01 04:31N 62°14' W 006°48'0 0.0
2014-Oct-01 03:31N 62°14' W 006°48'0 0.0
2014-Oct-01 02:31N 62°14' W 006°48'0 0.0
2014-Oct-01 01:31N 62°14' W 006°48'0 0.0
2014-Oct-01 00:31N 62°14' W 006°48'0 0.0
2014-Sep-30 23:31N 62°14' W 006°48'0 0.0
2014-Sep-30 22:31N 62°14' W 006°48'0 0.0
2014-Sep-30 21:31N 62°14' W 006°48'0 0.0
2014-Sep-30 20:31N 62°14' W 006°48'0 0.0
2014-Sep-30 19:31N 62°14' W 006°48'0 0.0
2014-Sep-30 18:31N 62°14' W 006°48'0 0.0
2014-Sep-30 17:31N 62°14' W 006°48'0 0.0
2014-Sep-30 16:31N 62°14' W 006°48'0 0.0
2014-Sep-30 15:25N 62°14' W 006°48'0 0.0
2014-Sep-30 14:28N 62°14' W 006°48'0 0.0
2014-Sep-30 13:31N 62°14' W 006°48'0 0.0
2014-Sep-30 12:31N 62°14' W 006°48'1 0.8
2014-Sep-30 11:32N 62°13' W 006°48'0 0.5
2014-Sep-30 10:34N 62°14' W 006°48'4 0.9
2014-Sep-30 06:27N 62°17' W 006°49'3 3.5
2014-Sep-30 05:32N 62°14' W 006°48'0 0.0
2014-Sep-30 04:32N 62°14' W 006°48'0 0.0
2014-Sep-30 03:14N 62°14' W 006°48'0 0.0
2014-Sep-30 02:29N 62°14' W 006°48'0 0.0
2014-Sep-30 01:32N 62°14' W 006°48'0 0.0
2014-Sep-30 00:29N 62°14' W 006°48'0 0.0
2014-Sep-29 23:29N 62°14' W 006°48'0 0.0
2014-Sep-29 22:26N 62°14' W 006°48'0 0.0
2014-Sep-29 21:17N 62°14' W 006°48'0 0.0
2014-Sep-29 20:32N 62°14' W 006°48'0 0.0
2014-Sep-29 19:32N 62°14' W 006°48'0 0.0
2014-Sep-29 18:32N 62°14' W 006°48'6 5.3
2014-Sep-29 17:20N 62°11' W 006°37'6 8.1
2014-Sep-29 16:33N 62°04' W 006°40'5 5.0
2014-Sep-29 15:32N 62°00' W 006°46'0 0.0
2014-Sep-29 14:29N 62°00' W 006°46'0 0.1
2014-Sep-29 13:29N 62°00' W 006°46'8 8.6
2014-Sep-29 12:33N 62°07' W 006°38'2 1.9
2014-Sep-29 11:31N 62°08' W 006°42'2 2.4
2014-Sep-29 10:32N 62°10' W 006°43'0 0.0
2014-Sep-29 09:32N 62°10' W 006°43'0 0.0
2014-Sep-29 08:29N 62°10' W 006°43'3 3.0
2014-Sep-29 07:31N 62°13' W 006°43'3 2.5
2014-Sep-29 06:29N 62°14' W 006°48'0 0.0
2014-Sep-29 05:32N 62°14' W 006°48'0 0.0
2014-Sep-29 04:32N 62°14' W 006°48'0 0.0
2014-Sep-29 03:26N 62°14' W 006°48'0 0.0
2014-Sep-29 02:17N 62°14' W 006°48'0 0.0
2014-Sep-29 01:29N 62°14' W 006°48'0 0.0
2014-Sep-29 00:32N 62°14' W 006°48'0 0.0
2014-Sep-28 23:32N 62°14' W 006°48'0 0.0
2014-Sep-28 22:32N 62°14' W 006°48'0 0.0
2014-Sep-28 21:32N 62°14' W 006°48'0 0.0
2014-Sep-28 20:32N 62°14' W 006°48'0 0.0
2014-Sep-28 19:26N 62°14' W 006°48'0 0.0
2014-Sep-28 18:32N 62°14' W 006°48'0 0.0
2014-Sep-28 17:32N 62°14' W 006°48'0 0.0
2014-Sep-28 16:32N 62°14' W 006°48'0 0.0
2014-Sep-28 15:32N 62°14' W 006°48'0 0.0
2014-Sep-28 14:32N 62°14' W 006°48'0 0.0
2014-Sep-28 13:32N 62°14' W 006°48'0 0.0
2014-Sep-28 12:32N 62°14' W 006°48'0 0.0
2014-Sep-28 11:32N 62°14' W 006°48'0 0.0
2014-Sep-28 10:32N 62°14' W 006°48'0 0.0
2014-Sep-28 09:32N 62°14' W 006°48'0 0.0
2014-Sep-28 08:32N 62°14' W 006°48'0 0.0
2014-Sep-28 07:32N 62°14' W 006°48'0 0.0
2014-Sep-28 06:29N 62°14' W 006°48'0 0.0
2014-Sep-28 05:32N 62°14' W 006°48'0 0.0
2014-Sep-28 04:32N 62°14' W 006°48'0 0.0
2014-Sep-28 03:32N 62°14' W 006°48'0 0.0
2014-Sep-28 02:32N 62°14' W 006°48'0 0.0
2014-Sep-28 01:32N 62°14' W 006°48'0 0.0
2014-Sep-28 00:32N 62°14' W 006°48'0 0.0
2014-Sep-27 23:32N 62°14' W 006°48'0 0.0
2014-Sep-27 22:32N 62°14' W 006°48'0 0.0
2014-Sep-27 21:32N 62°14' W 006°48'0 0.0
2014-Sep-27 20:32N 62°14' W 006°48'0 0.0
2014-Sep-27 19:26N 62°14' W 006°48'2 0.1
2014-Sep-26 12:30N 62°14' W 006°45'5 5.0
2014-Sep-26 11:33N 62°12' W 006°36'2 1.2
2014-Sep-26 09:33N 62°10' W 006°32'8 8.5
2014-Sep-26 08:33N 62°14' W 006°48'0 0.0
2014-Sep-26 07:33N 62°14' W 006°48'0 0.0
2014-Sep-26 06:34N 62°14' W 006°48'0 0.0
2014-Sep-26 05:34N 62°14' W 006°48'0 0.0
2014-Sep-26 04:33N 62°14' W 006°48'0 0.0
2014-Sep-26 03:34N 62°14' W 006°48'0 0.0
2014-Sep-26 02:34N 62°14' W 006°48'0 0.0
2014-Sep-26 01:34N 62°14' W 006°48'0 0.0
2014-Sep-26 00:34N 62°14' W 006°48'0 0.0
2014-Sep-25 23:33N 62°14' W 006°48'0 0.0
2014-Sep-25 22:34N 62°14' W 006°48'0 0.0
2014-Sep-25 21:31N 62°14' W 006°48'0 0.0
2014-Sep-25 20:34N 62°14' W 006°48'0 0.0
2014-Sep-25 19:34N 62°14' W 006°48'0 0.0
2014-Sep-25 18:33N 62°14' W 006°48'0 0.0
2014-Sep-25 17:34N 62°14' W 006°48'9 8.7
2014-Sep-25 16:33N 62°10' W 006°31'2 0.3
2014-Sep-25 08:27N 62°11' W 006°27'8 8.5
2014-Sep-25 07:33N 62°13' W 006°42'3 3.0
2014-Sep-25 06:33N 62°14' W 006°48'0 0.0
2014-Sep-25 05:33N 62°14' W 006°48'0 0.0
2014-Sep-25 04:33N 62°14' W 006°48'0 0.0
2014-Sep-25 03:33N 62°14' W 006°48'0 0.0
2014-Sep-25 02:33N 62°14' W 006°48'0 0.0
2014-Sep-25 01:33N 62°14' W 006°48'0 0.0
2014-Sep-25 00:33N 62°14' W 006°48'0 0.0
2014-Sep-24 23:33N 62°14' W 006°48'0 0.0
2014-Sep-24 22:33N 62°14' W 006°48'0 0.0
2014-Sep-24 21:33N 62°14' W 006°48'0 0.0
2014-Sep-24 20:33N 62°14' W 006°48'0 0.0
2014-Sep-24 19:33N 62°14' W 006°48'0 0.0
2014-Sep-24 18:33N 62°14' W 006°48'0 0.0
2014-Sep-24 17:33N 62°14' W 006°48'0 0.0
2014-Sep-24 16:33N 62°14' W 006°48'0 0.0
2014-Sep-24 15:33N 62°14' W 006°48'0 0.0
2014-Sep-24 14:30N 62°14' W 006°48'6 6.4
2014-Sep-24 13:34N 62°11' W 006°37'8 7.8
2014-Sep-24 12:33N 62°04' W 006°41'4 3.7
2014-Sep-24 11:32N 62°03' W 006°49'4 4.4
2014-Sep-24 10:32N 61°59' W 006°45'1 0.7
2014-Sep-24 09:33N 61°60' W 006°44'9 9.3
2014-Sep-24 08:33N 62°08' W 006°35'9 8.8
2014-Sep-24 07:33N 62°14' W 006°48'0 0.2
2014-Sep-24 06:32N 62°14' W 006°48'0 0.0
2014-Sep-24 05:32N 62°14' W 006°48'0 0.0
2014-Sep-24 04:32N 62°14' W 006°48'0 0.0
2014-Sep-24 03:29N 62°14' W 006°48'0 0.0
2014-Sep-24 02:32N 62°14' W 006°48'0 0.0
2014-Sep-24 01:29N 62°14' W 006°48'0 0.0
2014-Sep-24 00:32N 62°14' W 006°48'0 0.0
2014-Sep-23 23:32N 62°14' W 006°48'0 0.0
2014-Sep-23 22:32N 62°14' W 006°48'0 0.0
2014-Sep-23 21:32N 62°14' W 006°48'0 0.0
2014-Sep-23 20:32N 62°14' W 006°48'0 0.0
2014-Sep-23 19:32N 62°14' W 006°48'0 0.0
2014-Sep-23 18:32N 62°14' W 006°48'0 0.0
2014-Sep-23 17:32N 62°14' W 006°48'0 0.0
2014-Sep-23 16:32N 62°14' W 006°48'0 0.0
2014-Sep-23 15:32N 62°14' W 006°48'2 1.8
2014-Sep-23 14:33N 62°14' W 006°44'9 2.9
2014-Sep-23 11:33N 62°11' W 006°27'0 0.1
2014-Sep-23 09:26N 62°11' W 006°27'9 9.9
2014-Sep-23 08:33N 62°14' W 006°44'2 1.9
2014-Sep-23 07:33N 62°14' W 006°48'0 0.0
2014-Sep-23 06:30N 62°14' W 006°48'0 0.0
2014-Sep-23 05:33N 62°14' W 006°48'0 0.0
2014-Sep-23 04:30N 62°14' W 006°48'0 0.0
2014-Sep-23 03:33N 62°14' W 006°48'0 0.0
2014-Sep-23 02:33N 62°14' W 006°48'0 0.0
2014-Sep-23 01:30N 62°14' W 006°48'0 0.0
2014-Sep-23 00:33N 62°14' W 006°48'0 0.0
2014-Sep-22 23:33N 62°14' W 006°48'0 0.0
2014-Sep-22 22:33N 62°14' W 006°48'0 0.0
2014-Sep-22 21:33N 62°14' W 006°48'0 0.0
2014-Sep-22 20:33N 62°14' W 006°48'0 0.0
2014-Sep-22 19:33N 62°14' W 006°48'3 2.8
2014-Sep-22 18:33N 62°13' W 006°43'8 8.1
2014-Sep-22 17:33N 62°06' W 006°37'1010.1
2014-Sep-22 16:34N 61°56' W 006°44'9 9.1
2014-Sep-22 15:34N 62°00' W 007°01'3 1.7
2014-Sep-22 13:27N 62°02' W 007°08'9 9.6
2014-Sep-22 12:33N 61°58' W 006°52'7 6.8
2014-Sep-22 11:33N 62°03' W 006°42'6 5.4
2014-Sep-22 10:31N 62°08' W 006°41'0 0.1
2014-Sep-22 09:33N 62°08' W 006°42'4 4.3
2014-Sep-22 08:33N 62°12' W 006°40'4 4.1
2014-Sep-22 07:33N 62°14' W 006°48'0 0.0
2014-Sep-22 06:33N 62°14' W 006°48'0 0.0
2014-Sep-22 05:33N 62°14' W 006°48'0 0.0
2014-Sep-22 04:30N 62°14' W 006°48'0 0.0
2014-Sep-22 03:33N 62°14' W 006°48'0 0.0
2014-Sep-22 02:33N 62°14' W 006°48'0 0.0
2014-Sep-22 01:33N 62°14' W 006°48'0 0.0
2014-Sep-22 00:33N 62°14' W 006°48'0 0.0
2014-Sep-21 23:33N 62°14' W 006°48'0 0.0
2014-Sep-21 22:33N 62°14' W 006°48'0 0.0
2014-Sep-21 21:33N 62°14' W 006°48'0 0.0
2014-Sep-21 20:33N 62°14' W 006°48'0 0.0
2014-Sep-21 19:33N 62°14' W 006°48'0 0.0
2014-Sep-21 18:33N 62°14' W 006°48'0 0.0
2014-Sep-21 17:33N 62°14' W 006°48'  

Dump ship's entire track history